Time;durP1;ratioP1;P1;durP2;ratioP2;P2;SDS_P1;SDS_P2;PMS_P1;PMS_P2;Temp;Humidity;BMP_temperature;BMP_pressure;BME280_temperature;BME280_humidity;BME280_pressure;Samples;Min_cycle;Max_cycle;Signal;HPM_P1;HPM_P2
2023/06/29 00:02:18;;;;;;;;;;;;;;;19.13;73.70;99619.75;5094087;28;19928;-41
2023/06/29 00:04:43;;;;;;;;;;;;;;;19.19;73.47;99623.28;5094270;28;19912;-41
2023/06/29 00:07:09;;;;;;;;;;;;;;;19.50;71.98;99623.41;5094269;28;20023;-40
2023/06/29 00:09:34;;;;;;;;;;;;;;;19.04;73.35;99615.94;5093954;28;19919;-41
2023/06/29 00:11:59;;;;;;;;;;;;;;;19.64;70.09;99621.81;5093632;28;20279;-41
2023/06/29 00:14:25;;;;;;;;;;;;;;;19.45;70.61;99616.09;5093864;28;19912;-41
2023/06/29 00:16:50;;;;;;;;;;;;;;;19.34;70.26;99607.16;5093755;28;20475;-41
2023/06/29 00:19:16;;;;;;;;;;;;;;;18.99;71.00;99602.41;5094106;28;19912;-41
2023/06/29 00:21:41;;;;;;;;;;;;;;;18.98;71.74;99602.69;5094033;28;20254;-41
2023/06/29 00:24:11;;;;;;;;;;;;;;;19.22;69.99;99597.66;5093841;28;19934;-41
2023/06/29 00:26:37;;;;;;;;;;;;;;;19.34;69.03;99604.47;5093758;28;20523;-40
2023/06/29 00:29:02;;;;;;;;;;;;;;;19.30;69.94;99605.25;5093558;28;19912;-42
2023/06/29 00:31:28;;;;;;;;;;;;;;;19.20;69.68;99599.81;5093859;28;19931;-41
2023/06/29 00:33:53;;;;;;;;;;;;;;;19.04;70.47;99599.75;5093213;28;19924;-47
2023/06/29 00:36:18;;;;;;;;;;;;;;;19.09;70.45;99621.34;5093381;28;20392;-46
2023/06/29 00:38:43;;;;;;;;;;;;;;;18.74;71.57;99620.03;5093406;28;19912;-47
2023/06/29 00:41:09;;;;;;;;;;;;;;;18.85;71.67;99626.34;5093410;28;19916;-47
2023/06/29 00:43:34;;;;;;;;;;;;;;;18.97;71.24;99618.06;5093372;28;19912;-47
2023/06/29 00:46:00;;;;;;;;;;;;;;;18.70;71.87;99632.41;5092694;28;19918;-47
2023/06/29 00:48:26;;;;;;;;;;;;;;;18.31;72.70;99639.94;5093110;28;20010;-47
2023/06/29 00:50:51;;;;;;;;;;;;;;;18.41;73.21;99636.50;5092961;28;19952;-47
2023/06/29 00:53:17;;;;;;;;;;;;;;;18.47;72.82;99633.63;5092893;28;19912;-47
2023/06/29 00:55:42;;;;;;;;;;;;;;;18.26;73.51;99629.94;5093393;28;19912;-47
2023/06/29 00:58:07;;;;;;;;;;;;;;;18.49;72.78;99628.78;5093068;28;20314;-47
2023/06/29 01:00:33;;;;;;;;;;;;;;;18.23;74.22;99629.66;5092947;28;19960;-47
2023/06/29 01:02:59;;;;;;;;;;;;;;;18.16;74.59;99635.22;5093058;28;19928;-43
2023/06/29 01:05:24;;;;;;;;;;;;;;;18.22;74.24;99631.53;5093320;28;19916;-42
2023/06/29 01:07:59;;;;;;;;;;;;;;;17.59;76.99;99636.53;5093227;28;19984;-43
2023/06/29 01:10:25;;;;;;;;;;;;;;;17.81;76.98;99631.13;5092864;28;20391;-42
2023/06/29 01:12:52;;;;;;;;;;;;;;;18.11;75.50;99641.41;5086847;28;20066;-42
2023/06/29 01:15:18;;;;;;;;;;;;;;;18.28;74.66;99641.28;5092701;28;19912;-43
2023/06/29 01:17:44;;;;;;;;;;;;;;;18.22;74.63;99633.41;5092581;28;19912;-42
2023/06/29 01:20:11;;;;;;;;;;;;;;;18.04;75.88;99639.97;5092667;28;19919;-41
2023/06/29 01:23:03;;;;;;;;;;;;;;;18.28;75.18;99646.66;5092852;28;19916;-42
2023/06/29 01:25:29;;;;;;;;;;;;;;;18.13;75.00;99643.84;5091481;28;19916;-42
2023/06/29 01:27:54;;;;;;;;;;;;;;;18.19;75.04;99645.50;5092564;28;19912;-42
2023/06/29 01:30:20;;;;;;;;;;;;;;;17.94;75.04;99633.44;5092202;28;19916;-43
2023/06/29 01:32:45;;;;;;;;;;;;;;;17.93;75.53;99636.38;5092359;28;19935;-42
2023/06/29 01:35:11;;;;;;;;;;;;;;;18.11;74.92;99629.81;5092672;28;19969;-42
2023/06/29 01:37:40;;;;;;;;;;;;;;;17.90;76.26;99632.31;5092494;28;20338;-44
2023/06/29 01:40:08;;;;;;;;;;;;;;;18.30;74.18;99631.06;5092190;28;20642;-41
2023/06/29 01:42:34;;;;;;;;;;;;;;;17.95;76.01;99623.47;5091978;28;20350;-42
2023/06/29 01:45:00;;;;;;;;;;;;;;;17.99;75.74;99619.19;5092235;28;19919;-44
2023/06/29 01:47:26;;;;;;;;;;;;;;;18.34;74.10;99620.59;5092196;28;19969;-42
2023/06/29 01:49:52;;;;;;;;;;;;;;;18.39;72.79;99630.56;5092015;28;19912;-42
2023/06/29 01:52:18;;;;;;;;;;;;;;;18.49;72.66;99642.25;5091954;28;19935;-43
2023/06/29 01:54:44;;;;;;;;;;;;;;;18.36;72.78;99651.56;5092064;28;19919;-43
2023/06/29 01:57:09;;;;;;;;;;;;;;;18.38;72.01;99661.28;5091032;28;19912;-43
2023/06/29 01:59:35;;;;;;;;;;;;;;;18.42;70.99;99655.13;5091717;28;20395;-41
2023/06/29 02:02:00;;;;;;;;;;;;;;;18.02;72.29;99642.94;5079244;28;20304;-41
2023/06/29 02:04:25;;;;;;;;;;;;;;;18.34;71.27;99644.81;5070952;28;19913;-41
2023/06/29 02:06:51;;;;;;;;;;;;;;;18.36;71.26;99624.63;5083019;28;19916;-42
2023/06/29 02:09:16;;;;;;;;;;;;;;;18.41;71.31;99628.44;5071223;28;19920;-41
2023/06/29 02:11:41;;;;;;;;;;;;;;;18.66;70.09;99633.22;5087337;28;19919;-42
2023/06/29 02:14:07;;;;;;;;;;;;;;;18.84;69.40;99635.50;5091476;28;19912;-42
2023/06/29 02:16:32;;;;;;;;;;;;;;;18.60;69.65;99629.66;5091064;28;19911;-42
2023/06/29 02:18:57;;;;;;;;;;;;;;;18.61;69.72;99633.97;5091235;28;19982;-40
2023/06/29 02:21:23;;;;;;;;;;;;;;;18.56;70.71;99623.16;5091216;28;20011;-36
2023/06/29 02:23:48;;;;;;;;;;;;;;;18.56;71.36;99620.47;5091218;28;19923;-36
2023/06/29 02:26:13;;;;;;;;;;;;;;;18.83;70.56;99627.66;5091105;28;20635;-34
2023/06/29 02:28:39;;;;;;;;;;;;;;;18.79;71.50;99630.06;5090945;28;19919;-36
2023/06/29 02:31:04;;;;;;;;;;;;;;;18.74;70.93;99630.81;5091421;28;19919;-37
2023/06/29 02:33:30;;;;;;;;;;;;;;;18.47;71.19;99633.63;5091453;28;19974;-34
2023/06/29 02:35:55;;;;;;;;;;;;;;;18.62;70.37;99627.53;5091071;28;19947;-37
2023/06/29 02:38:20;;;;;;;;;;;;;;;18.81;70.30;99632.50;5091083;28;19920;-37
2023/06/29 02:40:46;;;;;;;;;;;;;;;18.81;69.95;99621.72;5091257;28;20429;-37
2023/06/29 02:43:11;;;;;;;;;;;;;;;18.33;71.56;99633.25;5091035;28;19916;-36
2023/06/29 02:45:36;;;;;;;;;;;;;;;18.59;70.84;99630.72;5091208;28;19919;-37
2023/06/29 02:48:01;;;;;;;;;;;;;;;18.63;69.88;99622.94;5091041;28;19945;-37
2023/06/29 02:50:27;;;;;;;;;;;;;;;18.75;70.05;99629.78;5090996;28;20014;-37
2023/06/29 02:52:52;;;;;;;;;;;;;;;18.69;68.98;99617.31;5090939;28;20363;-37
2023/06/29 02:55:19;;;;;;;;;;;;;;;18.61;68.93;99615.09;5090959;28;20031;-37
2023/06/29 02:57:44;;;;;;;;;;;;;;;18.87;67.69;99609.91;5091057;28;20367;-37
2023/06/29 03:00:10;;;;;;;;;;;;;;;18.67;67.40;99607.88;5091476;28;19912;-37
2023/06/29 03:02:35;;;;;;;;;;;;;;;18.79;67.31;99621.97;5091388;28;19920;-35
2023/06/29 03:05:00;;;;;;;;;;;;;;;19.00;66.77;99628.31;5091438;28;20359;-34
2023/06/29 03:07:26;;;;;;;;;;;;;;;18.81;66.92;99632.50;5091401;28;19912;-36
2023/06/29 03:09:51;;;;;;;;;;;;;;;18.97;65.95;99631.53;5091112;28;20026;-36
2023/06/29 03:12:16;;;;;;;;;;;;;;;18.85;65.74;99626.34;5091253;28;19999;-36
2023/06/29 03:14:41;;;;;;;;;;;;;;;18.86;66.05;99625.25;5091247;28;19977;-35
2023/06/29 03:17:08;;;;;;;;;;;;;;;18.66;66.31;99623.25;5090997;28;20393;-35
2023/06/29 03:19:33;;;;;;;;;;;;;;;18.88;65.65;99619.63;5091240;28;20486;-36
2023/06/29 03:21:58;;;;;;;;;;;;;;;19.14;64.56;99615.97;5091404;28;19928;-36
2023/06/29 03:24:24;;;;;;;;;;;;;;;19.23;63.74;99619.00;5091171;28;19961;-36
2023/06/29 03:26:49;;;;;;;;;;;;;;;19.38;63.03;99625.50;5091163;28;19912;-36
2023/06/29 03:29:14;;;;;;;;;;;;;;;19.70;61.78;99626.16;5090961;28;20372;-36
2023/06/29 03:31:39;;;;;;;;;;;;;;;19.18;63.39;99627.03;5090753;28;20038;-36
2023/06/29 03:34:05;;;;;;;;;;;;;;;19.21;63.33;99631.09;5090803;28;20355;-36
2023/06/29 03:36:30;;;;;;;;;;;;;;;19.20;62.75;99634.88;5091089;28;19933;-36
2023/06/29 03:38:55;;;;;;;;;;;;;;;19.37;62.02;99638.19;5091009;28;19912;-35
2023/06/29 03:41:21;;;;;;;;;;;;;;;19.54;61.28;99637.97;5090752;28;20003;-36
2023/06/29 03:43:46;;;;;;;;;;;;;;;19.61;61.12;99641.25;5090959;28;19912;-36
2023/06/29 03:46:11;;;;;;;;;;;;;;;19.27;61.69;99633.56;5090953;28;19923;-37
2023/06/29 03:48:36;;;;;;;;;;;;;;;19.13;62.54;99630.53;5091274;28;19928;-35
2023/06/29 03:51:02;;;;;;;;;;;;;;;19.03;62.63;99641.25;5090772;28;19991;-36
2023/06/29 03:53:27;;;;;;;;;;;;;;;19.01;62.38;99621.84;5090992;28;20304;-36
2023/06/29 03:55:52;;;;;;;;;;;;;;;18.89;63.54;99654.41;5091197;28;19919;-35
2023/06/29 03:58:18;;;;;;;;;;;;;;;19.13;62.63;99646.72;5091033;28;20015;-35
2023/06/29 04:00:44;;;;;;;;;;;;;;;19.22;61.61;99655.13;5090481;28;19934;-35
2023/06/29 04:03:09;;;;;;;;;;;;;;;19.65;61.59;99666.63;5090637;28;19927;-41
2023/06/29 04:05:34;;;;;;;;;;;;;;;19.07;61.90;99668.53;5090785;28;20392;-41
2023/06/29 04:08:03;;;;;;;;;;;;;;;19.30;61.95;99659.19;5090772;28;20372;-42
2023/06/29 04:10:29;;;;;;;;;;;;;;;19.07;62.69;99658.53;5090686;28;19948;-41
2023/06/29 04:12:54;;;;;;;;;;;;;;;19.19;64.05;99660.22;5090154;28;20395;-41
2023/06/29 04:15:19;;;;;;;;;;;;;;;19.32;61.63;99673.22;5090537;28;20304;-41
2023/06/29 04:17:44;;;;;;;;;;;;;;;19.15;62.61;99668.03;5090030;28;19976;-41
2023/06/29 04:20:10;;;;;;;;;;;;;;;19.24;62.00;99663.75;5090359;28;20288;-42
2023/06/29 04:22:35;;;;;;;;;;;;;;;19.41;61.32;99668.97;5094255;28;19916;-42
2023/06/29 04:25:01;;;;;;;;;;;;;;;19.65;60.82;99674.72;5094108;28;19912;-42
2023/06/29 04:27:26;;;;;;;;;;;;;;;19.93;59.10;99669.94;5094339;28;20388;-42
2023/06/29 04:29:51;;;;;;;;;;;;;;;19.56;59.75;99670.91;5094379;28;19912;-41
2023/06/29 04:32:16;;;;;;;;;;;;;;;19.72;59.87;99669.94;5096488;28;19919;-42
2023/06/29 04:34:42;;;;;;;;;;;;;;;19.54;59.45;99681.97;5094239;28;19920;-41
2023/06/29 04:37:07;;;;;;;;;;;;;;;19.87;59.68;99676.44;5094008;28;20362;-42
2023/06/29 04:39:32;;;;;;;;;;;;;;;20.06;60.02;99676.72;5094315;28;19912;-42
2023/06/29 04:42:01;;;;;;;;;;;;;;;20.23;57.79;99690.81;5093724;28;20174;-44
2023/06/29 04:44:32;;;;;;;;;;;;;;;20.24;58.53;99687.03;5093868;28;20383;-41
2023/06/29 04:47:01;;;;;;;;;;;;;;;20.10;58.11;99684.06;5093980;28;20331;-41
2023/06/29 04:49:36;;;;;;;;;;;;;;;20.03;59.01;99696.16;5093462;28;19912;-40
2023/06/29 04:52:01;;;;;;;;;;;;;;;19.94;60.09;99692.38;5093679;28;19947;-41
2023/06/29 04:54:27;;;;;;;;;;;;;;;20.08;58.86;99690.78;5093710;28;20011;-42
2023/06/29 04:56:53;;;;;;;;;;;;;;;19.62;60.15;99685.22;5093166;28;19930;-41
2023/06/29 04:59:20;;;;;;;;;;;;;;;19.98;58.91;99698.88;5093435;28;19916;-41
2023/06/29 05:01:45;;;;;;;;;;;;;;;19.91;59.69;99710.75;5093611;28;19916;-41
2023/06/29 05:04:10;;;;;;;;;;;;;;;19.89;59.65;99709.38;5093527;28;20002;-41
2023/06/29 05:06:36;;;;;;;;;;;;;;;20.16;59.36;99706.44;5098312;28;20014;-42
2023/06/29 05:09:01;;;;;;;;;;;;;;;20.09;59.07;99709.44;5113860;28;20368;-41
2023/06/29 05:11:26;;;;;;;;;;;;;;;19.90;60.15;99708.31;5103591;28;19912;-42
2023/06/29 05:13:51;;;;;;;;;;;;;;;20.07;59.65;99711.59;5093965;28;19950;-42
2023/06/29 05:16:17;;;;;;;;;;;;;;;20.25;59.15;99712.94;5092949;28;19912;-43
2023/06/29 05:18:42;;;;;;;;;;;;;;;20.43;58.48;99717.03;5092389;28;19919;-41
2023/06/29 05:21:08;;;;;;;;;;;;;;;20.31;59.01;99716.47;5091292;28;19916;-41
2023/06/29 05:23:33;;;;;;;;;;;;;;;20.15;58.26;99720.25;5087784;28;20091;-41
2023/06/29 05:25:59;;;;;;;;;;;;;;;19.88;59.97;99722.06;5084802;28;19924;-36
2023/06/29 05:28:24;;;;;;;;;;;;;;;20.18;58.60;99727.81;5085839;28;20330;-36
2023/06/29 05:30:49;;;;;;;;;;;;;;;20.17;58.24;99724.28;5090436;28;20019;-36
2023/06/29 05:33:15;;;;;;;;;;;;;;;20.59;57.94;99735.97;5091833;28;20296;-36
2023/06/29 05:35:40;;;;;;;;;;;;;;;20.94;56.58;99731.66;5092320;28;20356;-36
2023/06/29 05:38:05;;;;;;;;;;;;;;;21.26;55.66;99726.72;5092463;28;20292;-36
2023/06/29 05:40:32;;;;;;;;;;;;;;;21.48;55.29;99718.28;5092238;28;20261;-36
2023/06/29 05:42:57;;;;;;;;;;;;;;;21.35;55.74;99732.38;5091963;28;19916;-36
2023/06/29 05:45:23;;;;;;;;;;;;;;;22.18;53.88;99727.41;5092333;28;19982;-36
2023/06/29 05:47:48;;;;;;;;;;;;;;;22.42;52.91;99728.38;5092017;28;19920;-35
2023/06/29 05:50:16;;;;;;;;;;;;;;;23.43;50.06;99733.16;5091772;28;19931;-36
2023/06/29 05:52:41;;;;;;;;;;;;;;;23.51;49.55;99733.63;5091999;28;19935;-36
2023/06/29 05:55:06;;;;;;;;;;;;;;;23.83;48.71;99726.75;5092050;28;19912;-35
2023/06/29 05:57:32;;;;;;;;;;;;;;;24.44;47.40;99725.84;5092920;28;19923;-42
2023/06/29 05:59:57;;;;;;;;;;;;;;;25.33;45.21;99721.38;5090604;28;19913;-42
2023/06/29 06:02:22;;;;;;;;;;;;;;;24.42;47.14;99711.75;5090856;28;20375;-42
2023/06/29 06:04:48;;;;;;;;;;;;;;;24.65;46.54;99714.69;5088772;28;19959;-43
2023/06/29 06:07:29;;;;;;;;;;;;;;;25.19;44.38;99715.91;5088730;28;19922;-36
2023/06/29 06:09:55;;;;;;;;;;;;;;;25.36;44.50;99707.97;5092243;28;20349;-37
2023/06/29 06:12:21;;;;;;;;;;;;;;;26.30;42.37;99713.06;5091818;28;20011;-35
2023/06/29 06:14:46;;;;;;;;;;;;;;;26.55;40.73;99716.28;5091328;28;19951;-35
2023/06/29 06:17:11;;;;;;;;;;;;;;;26.49;41.45;99710.94;5090206;28;20012;-35
2023/06/29 06:19:37;;;;;;;;;;;;;;;26.41;41.73;99702.72;5089515;28;19919;-36
2023/06/29 06:22:03;;;;;;;;;;;;;;;26.06;42.53;99707.88;5088179;28;19977;-36
2023/06/29 06:24:28;;;;;;;;;;;;;;;26.41;41.96;99702.72;5088358;28;19961;-36
2023/06/29 06:26:53;;;;;;;;;;;;;;;26.68;41.42;99693.59;5088270;28;20640;-37
2023/06/29 06:29:18;;;;;;;;;;;;;;;27.26;40.30;99695.34;5087857;28;19916;-36
2023/06/29 06:31:44;;;;;;;;;;;;;;;26.99;41.12;99687.31;5091461;28;19939;-36
2023/06/29 06:34:09;;;;;;;;;;;;;;;27.50;39.69;99688.66;5104509;28;20303;-36
2023/06/29 06:36:34;;;;;;;;;;;;;;;26.61;40.45;99687.78;5111650;28;19911;-36
2023/06/29 06:39:00;;;;;;;;;;;;;;;26.83;41.02;99687.75;5111414;28;19918;-34
2023/06/29 06:41:25;;;;;;;;;;;;;;;27.86;39.15;99680.19;5111634;28;19920;-37
2023/06/29 06:43:51;;;;;;;;;;;;;;;26.67;40.03;99684.63;5110860;28;20387;-35
2023/06/29 06:46:16;;;;;;;;;;;;;;;26.75;40.33;99684.94;5111664;28;20350;-36
2023/06/29 06:48:42;;;;;;;;;;;;;;;26.75;39.61;99687.69;5111537;28;19927;-37
2023/06/29 06:51:07;;;;;;;;;;;;;;;26.83;39.33;99679.56;5111616;28;19912;-37
2023/06/29 06:53:32;;;;;;;;;;;;;;;27.06;38.66;99684.97;5111342;28;19915;-37
2023/06/29 06:55:57;;;;;;;;;;;;;;;27.10;38.85;99677.75;5110430;28;19912;-36
2023/06/29 06:58:23;;;;;;;;;;;;;;;26.71;38.98;99685.59;5111071;28;19911;-36
2023/06/29 07:00:48;;;;;;;;;;;;;;;27.35;38.43;99680.91;5111079;28;19934;-37
2023/06/29 07:03:13;;;;;;;;;;;;;;;28.15;37.12;99680.72;5111051;28;19916;-35
2023/06/29 07:05:39;;;;;;;;;;;;;;;28.11;37.08;99685.22;5111106;28;20003;-37
2023/06/29 07:08:04;;;;;;;;;;;;;;;28.29;36.77;99686.78;5111133;28;20375;-36
2023/06/29 07:10:29;;;;;;;;;;;;;;;29.30;35.28;99680.94;5111534;28;20370;-37
2023/06/29 07:12:55;;;;;;;;;;;;;;;28.30;36.06;99682.94;5111276;28;20011;-37
2023/06/29 07:15:20;;;;;;;;;;;;;;;29.15;34.87;99689.69;5111583;28;20280;-37
2023/06/29 07:17:45;;;;;;;;;;;;;;;28.62;35.93;99683.56;5111343;28;19912;-37
2023/06/29 07:20:11;;;;;;;;;;;;;;;28.34;36.03;99689.38;5111314;28;19923;-36
2023/06/29 07:22:36;;;;;;;;;;;;;;;27.73;37.51;99678.41;5110947;28;20451;-36
2023/06/29 07:25:03;;;;;;;;;;;;;;;28.21;37.28;99684.88;5110887;27;19939;-38
2023/06/29 07:27:28;;;;;;;;;;;;;;;29.33;35.66;99693.16;5111014;28;20278;-36
2023/06/29 07:29:54;;;;;;;;;;;;;;;29.35;35.48;99688.94;5094879;28;19912;-37
2023/06/29 07:32:19;;;;;;;;;;;;;;;29.63;33.71;99689.25;5090472;28;19920;-35
2023/06/29 07:34:44;;;;;;;;;;;;;;;30.10;33.66;99682.81;5090249;28;19916;-35
2023/06/29 07:37:10;;;;;;;;;;;;;;;29.78;34.28;99687.13;5090428;28;19970;-36
2023/06/29 07:39:35;;;;;;;;;;;;;;;29.52;34.05;99698.22;5090526;28;19920;-37
2023/06/29 07:42:00;;;;;;;;;;;;;;;29.03;35.99;99699.41;5090475;28;19916;-36
2023/06/29 07:44:25;;;;;;;;;;;;;;;28.69;35.11;99692.06;5089993;28;19912;-36
2023/06/29 07:46:51;;;;;;;;;;;;;;;28.72;35.64;99687.91;5090543;28;19912;-37
2023/06/29 07:49:16;;;;;;;;;;;;;;;29.15;35.77;99692.44;5090564;28;19912;-36
2023/06/29 07:51:42;;;;;;;;;;;;;;;28.84;34.46;99693.47;5090678;28;19919;-37
2023/06/29 07:54:08;;;;;;;;;;;;;;;29.19;33.86;99691.44;5088948;28;20257;-37
2023/06/29 07:56:33;;;;;;;;;;;;;;;28.72;34.19;99688.69;5092157;28;19916;-36
2023/06/29 07:58:59;;;;;;;;;;;;;;;29.27;33.99;99684.31;5094599;28;19969;-36
2023/06/29 08:01:24;;;;;;;;;;;;;;;29.04;34.00;99687.28;5093813;28;19916;-36
2023/06/29 08:03:49;;;;;;;;;;;;;;;29.53;34.08;99686.09;5093999;28;19916;-36
2023/06/29 08:06:15;;;;;;;;;;;;;;;30.26;33.22;99688.50;5093740;28;19912;-36
2023/06/29 08:08:40;;;;;;;;;;;;;;;29.15;34.64;99687.78;5094468;28;19912;-36
2023/06/29 08:11:06;;;;;;;;;;;;;;;28.77;33.50;99676.75;5094430;28;19912;-37
2023/06/29 08:13:31;;;;;;;;;;;;;;;29.09;34.43;99689.03;5093952;28;19915;-36
2023/06/29 08:15:57;;;;;;;;;;;;;;;28.92;34.14;99687.19;5094137;28;20027;-37
2023/06/29 08:18:22;;;;;;;;;;;;;;;29.27;34.15;99670.63;5094298;28;20409;-36
2023/06/29 08:20:48;;;;;;;;;;;;;;;28.82;33.05;99693.00;5093352;28;20247;-37
2023/06/29 08:23:13;;;;;;;;;;;;;;;28.65;33.16;99680.16;5093342;28;19920;-34
2023/06/29 08:25:39;;;;;;;;;;;;;;;29.16;34.19;99683.88;5093529;28;19912;-35
2023/06/29 08:28:04;;;;;;;;;;;;;;;29.01;33.29;99678.94;5093797;28;20346;-36
2023/06/29 08:30:29;;;;;;;;;;;;;;;29.26;33.67;99666.25;5093602;28;19912;-36
2023/06/29 08:32:55;;;;;;;;;;;;;;;29.73;33.35;99682.63;5093770;28;20453;-37
2023/06/29 08:35:20;;;;;;;;;;;;;;;30.23;32.23;99671.88;5093878;28;19943;-36
2023/06/29 08:37:45;;;;;;;;;;;;;;;30.20;31.90;99678.88;5094134;28;19912;-36
2023/06/29 08:40:11;;;;;;;;;;;;;;;30.27;31.86;99673.63;5093999;28;20378;-37
2023/06/29 08:42:39;;;;;;;;;;;;;;;30.09;31.78;99675.72;5093750;28;20325;-36
2023/06/29 08:45:05;;;;;;;;;;;;;;;29.42;33.27;99670.06;5093570;28;19912;-36
2023/06/29 08:47:32;;;;;;;;;;;;;;;30.24;32.75;99668.03;5093158;28;19986;-36
2023/06/29 08:49:57;;;;;;;;;;;;;;;30.56;31.72;99667.22;5093303;28;19919;-37
2023/06/29 08:52:25;;;;;;;;;;;;;;;30.05;32.18;99668.50;5093069;28;20256;-36
2023/06/29 08:54:51;;;;;;;;;;;;;;;30.50;31.46;99656.78;5093262;28;19913;-36
2023/06/29 08:57:16;;;;;;;;;;;;;;;30.79;30.45;99653.88;5093070;28;19912;-35
2023/06/29 08:59:43;;;;;;;;;;;;;;;30.89;30.96;99657.34;5092841;28;19912;-35
2023/06/29 09:02:10;;;;;;;;;;;;;;;31.61;30.69;99656.91;5092892;28;19927;-37
2023/06/29 09:04:36;;;;;;;;;;;;;;;30.74;30.94;99653.31;5093389;28;20439;-37
2023/06/29 09:07:03;;;;;;;;;;;;;;;31.20;30.03;99656.00;5092111;28;19993;-36
2023/06/29 09:09:28;;;;;;;;;;;;;;;30.99;31.01;99656.91;5092878;28;19912;-37
2023/06/29 09:11:54;;;;;;;;;;;;;;;30.92;30.95;99646.50;5092938;28;20018;-36
2023/06/29 09:14:19;;;;;;;;;;;;;;;31.31;30.43;99643.38;5092676;28;19925;-36
2023/06/29 09:16:52;;;;;;;;;;;;;;;31.32;29.81;99637.56;5092461;28;19923;-36
2023/06/29 09:19:18;;;;;;;;;;;;;;;30.95;30.68;99639.50;5092511;28;19912;-36
2023/06/29 09:21:44;;;;;;;;;;;;;;;30.09;31.31;99634.56;5092254;28;19928;-36
2023/06/29 09:24:09;;;;;;;;;;;;;;;30.27;32.03;99632.44;5092658;28;20003;-35
2023/06/29 09:26:36;;;;;;;;;;;;;;;30.82;31.41;99644.16;5092214;28;19958;-35
2023/06/29 09:29:03;;;;;;;;;;;;;;;31.57;30.32;99634.78;5092466;28;20380;-37
2023/06/29 09:31:32;;;;;;;;;;;;;;;31.66;30.22;99635.47;5092715;28;19916;-37
2023/06/29 09:34:17;;;;;;;;;;;;;;;30.88;30.88;99642.81;5092365;28;19924;-36
2023/06/29 09:36:43;;;;;;;;;;;;;;;31.60;29.11;99638.78;5091967;28;19919;-36
2023/06/29 09:39:14;;;;;;;;;;;;;;;31.82;28.71;99631.97;5092528;28;19912;-37
2023/06/29 09:41:45;;;;;;;;;;;;;;;32.53;28.63;99631.16;5091942;28;19927;-38
2023/06/29 09:44:11;;;;;;;;;;;;;;;32.57;28.90;99627.75;5091961;28;20074;-36
2023/06/29 09:46:40;;;;;;;;;;;;;;;31.68;28.14;99627.66;5092334;28;19930;-36
2023/06/29 09:49:07;;;;;;;;;;;;;;;32.96;27.85;99630.66;5092170;28;20376;-36
2023/06/29 09:51:32;;;;;;;;;;;;;;;32.29;28.72;99615.63;5092043;28;19916;-34
2023/06/29 09:54:00;;;;;;;;;;;;;;;32.43;28.48;99612.44;5090707;28;19969;-42
2023/06/29 09:56:26;;;;;;;;;;;;;;;32.09;29.23;99620.19;5092078;28;19919;-42
2023/06/29 09:58:53;;;;;;;;;;;;;;;31.29;28.70;99618.19;5092240;28;19935;-43
2023/06/29 10:01:18;;;;;;;;;;;;;;;32.67;28.13;99628.03;5092082;28;19939;-43
2023/06/29 10:03:44;;;;;;;;;;;;;;;32.22;28.73;99609.13;5092262;28;19911;-42
2023/06/29 10:06:12;;;;;;;;;;;;;;;32.17;28.59;99614.88;5092288;28;20034;-43
2023/06/29 10:08:39;;;;;;;;;;;;;;;33.07;27.42;99612.44;5091852;28;19912;-42
2023/06/29 10:11:05;;;;;;;;;;;;;;;33.55;26.28;99606.81;5091894;28;20406;-42
2023/06/29 10:13:36;;;;;;;;;;;;;;;33.42;26.70;99604.19;5091845;28;20294;-42
2023/06/29 10:16:02;;;;;;;;;;;;;;;32.80;26.68;99600.38;5091744;28;20287;-42
2023/06/29 10:18:32;;;;;;;;;;;;;;;33.06;25.63;99600.63;5090953;28;20371;-42
2023/06/29 10:20:57;;;;;;;;;;;;;;;33.17;26.18;99592.63;5091941;28;19912;-42
2023/06/29 10:23:23;;;;;;;;;;;;;;;33.04;26.60;99597.41;5091526;28;19916;-42
2023/06/29 10:25:50;;;;;;;;;;;;;;;33.17;26.36;99586.28;5091295;28;19916;-42
2023/06/29 10:28:16;;;;;;;;;;;;;;;32.59;27.63;99590.44;5091919;28;19955;-42
2023/06/29 10:30:45;;;;;;;;;;;;;;;33.08;26.96;99580.97;5091431;28;20137;-41
2023/06/29 10:33:10;;;;;;;;;;;;;;;32.44;26.70;99591.19;5091275;28;20324;-42
2023/06/29 10:35:36;;;;;;;;;;;;;;;33.12;26.32;99592.91;5091233;28;19959;-42
2023/06/29 10:38:07;;;;;;;;;;;;;;;32.29;26.77;99590.03;5091157;28;19911;-43
2023/06/29 10:40:34;;;;;;;;;;;;;;;31.60;27.00;99581.81;5091603;28;20053;-42
2023/06/29 10:42:59;;;;;;;;;;;;;;;31.08;27.69;99585.38;5091608;28;19924;-43
2023/06/29 10:45:24;;;;;;;;;;;;;;;31.89;27.51;99582.63;5091309;28;19912;-42
2023/06/29 10:47:55;;;;;;;;;;;;;;;33.14;27.07;99582.31;5091613;28;19996;-42
2023/06/29 10:50:30;;;;;;;;;;;;;;;33.04;26.59;99585.59;5091320;28;20308;-43
2023/06/29 10:52:59;;;;;;;;;;;;;;;33.60;25.74;99573.44;5091596;28;19912;-41
2023/06/29 10:55:26;;;;;;;;;;;;;;;33.61;26.23;99572.28;5091441;28;19943;-43
2023/06/29 10:57:57;;;;;;;;;;;;;;;32.75;25.76;99578.59;5091004;28;19918;-42
2023/06/29 11:00:24;;;;;;;;;;;;;;;32.67;26.71;99575.69;5091383;28;19916;-43
2023/06/29 11:02:50;;;;;;;;;;;;;;;32.64;26.85;99573.66;5091102;28;20401;-42
2023/06/29 11:05:19;;;;;;;;;;;;;;;32.39;26.97;99564.75;5091064;28;19952;-41
2023/06/29 11:07:45;;;;;;;;;;;;;;;32.25;27.58;99572.63;5090960;28;19912;-41
2023/06/29 11:10:10;;;;;;;;;;;;;;;32.52;27.87;99565.47;5090994;28;20318;-42
2023/06/29 11:12:37;;;;;;;;;;;;;;;32.94;25.66;99567.66;5090868;28;19912;-42
2023/06/29 11:15:03;;;;;;;;;;;;;;;33.52;24.06;99560.66;5091248;28;19920;-42
2023/06/29 11:17:28;;;;;;;;;;;;;;;34.06;24.54;99554.25;5091183;28;19912;-42
2023/06/29 11:19:54;;;;;;;;;;;;;;;32.52;26.03;99568.22;5090814;28;19968;-42
2023/06/29 11:22:19;;;;;;;;;;;;;;;32.79;25.76;99563.00;5091084;28;20403;-42
2023/06/29 11:24:45;;;;;;;;;;;;;;;33.24;24.99;99550.63;5091032;28;20380;-42
2023/06/29 11:27:10;;;;;;;;;;;;;;;33.71;23.76;99543.34;5090805;28;20418;-41
2023/06/29 11:29:36;;;;;;;;;;;;;;;33.13;24.94;99552.34;5090643;28;20003;-42
2023/06/29 11:32:02;;;;;;;;;;;;;;;33.58;24.95;99551.72;5091097;28;19916;-42
2023/06/29 11:34:27;;;;;;;;;;;;;;;34.34;24.33;99540.19;5090827;28;19920;-41
2023/06/29 11:36:52;;;;;;;;;;;;;;;34.16;24.66;99550.94;5090826;28;19923;-42
2023/06/29 11:39:18;;;;;;;;;;;;;;;34.52;24.49;99542.44;5090671;28;19912;-42
2023/06/29 11:41:43;;;;;;;;;;;;;;;35.25;23.28;99543.16;5090666;28;19916;-42
2023/06/29 11:44:09;;;;;;;;;;;;;;;35.17;23.05;99533.16;5090859;28;20006;-42
2023/06/29 11:46:35;;;;;;;;;;;;;;;35.27;23.13;99532.53;5090606;28;20007;-43
2023/06/29 11:49:02;;;;;;;;;;;;;;;34.52;24.48;99525.84;5090268;28;19922;-42
2023/06/29 11:51:30;;;;;;;;;;;;;;;33.73;23.75;99525.25;5090475;28;19916;-41
2023/06/29 11:53:56;;;;;;;;;;;;;;;33.99;23.39;99521.81;5090535;28;19919;-41
2023/06/29 11:56:35;;;;;;;;;;;;;;;34.65;23.34;99514.25;5090572;28;19996;-43
2023/06/29 11:59:12;;;;;;;;;;;;;;;35.12;22.85;99519.66;5090645;28;19963;-41
2023/06/29 12:01:38;;;;;;;;;;;;;;;34.84;22.56;99499.56;5090290;28;19974;-43
2023/06/29 12:04:04;;;;;;;;;;;;;;;34.71;23.03;99513.94;5090504;28;19924;-42
2023/06/29 12:06:30;;;;;;;;;;;;;;;34.31;22.36;99501.44;5090542;28;19973;-41
2023/06/29 12:08:55;;;;;;;;;;;;;;;34.46;23.04;99504.09;5090560;28;19916;-43
2023/06/29 12:11:25;;;;;;;;;;;;;;;34.41;23.29;99500.84;5090600;28;19920;-43
2023/06/29 12:13:52;;;;;;;;;;;;;;;34.33;23.19;99502.69;5090274;28;20006;-43
2023/06/29 12:16:19;;;;;;;;;;;;;;;33.79;24.29;99496.19;5090500;28;20369;-43
2023/06/29 12:18:44;;;;;;;;;;;;;;;34.47;23.52;99494.63;5090545;28;20365;-42
2023/06/29 12:21:09;;;;;;;;;;;;;;;35.50;22.65;99496.44;5090782;28;20008;-42
2023/06/29 12:23:35;;;;;;;;;;;;;;;35.96;22.07;99496.16;5090496;28;19916;-42
2023/06/29 12:26:00;;;;;;;;;;;;;;;36.58;21.58;99492.72;5090614;28;20367;-41
2023/06/29 12:28:25;;;;;;;;;;;;;;;36.76;21.90;99492.88;5090145;28;19912;-43
2023/06/29 12:30:51;;;;;;;;;;;;;;;36.46;22.65;99490.28;5089297;28;19916;-42
2023/06/29 12:33:16;;;;;;;;;;;;;;;34.61;24.22;99483.00;5087089;28;19928;-42
2023/06/29 12:35:42;;;;;;;;;;;;;;;32.62;25.99;99487.81;5081210;28;19912;-43
2023/06/29 12:38:07;;;;;;;;;;;;;;;33.10;25.98;99483.00;5082551;28;19935;-42
2023/06/29 12:40:32;;;;;;;;;;;;;;;33.35;25.13;99471.69;5086200;28;19919;-43
2023/06/29 12:42:59;;;;;;;;;;;;;;;33.29;25.36;99457.41;5092533;28;20394;-43